North Vernon, IN

12:53 PM EDT on September 01, 2015 (GMT -0400)
North Vernon - East | | Change Station
CLOSE
Current Station
Personal Weather Station
Location: North Vernon, IN
Elevation: 761 ft
Nearby Weather Stations

Elev 761 ft 39.01 °N, 85.59 °W | Updated 8 minutes ago

Clear
Clear
85.3 °F
Feels Like 93 °F
N
2.2
Wind Variable Wind from SSW

Today
High -- | Low -- °F
--% Chance of Precip.
Yesterday
High -- | Low -- °F
Precip. -- in
7:11 AM 8:13 PM
Waning Gibbous, 88% visible
Pressure 30.16 in
Visibility 10.0 miles
Clouds Clear
Heat Index 93 °F
Dew Point 74 °F
Humidity 68%
Rainfall 0.00 in
Snow Depth Not available.
UV 8 out of 12
Pollen 10.60 out of 12
Air Quality Not available.
Flu Activity Not available.
METAR KBAK 011555Z 24006KT 10SM SKC 27/20 A3016
Pressure 30.16 in
Visibility 10.0 miles
Clouds Clear
Heat Index 93 °F
Dew Point 74 °F
Humidity 68%
Rainfall 0.00 in
Snow Depth Not available.
UV 8 out of 12
Pollen 10.60 out of 12
Air Quality Not available.
Flu Activity Not available.
METAR KBAK 011555Z 24006KT 10SM SKC 27/20 A3016

10-Day Weather Forecast

×

Almanac

Astronomy

Sep. 01, 2015 Rise Set
Actual Time
Civil Twilight
Nautical Twilight
Astronomical Twilight
Moon
Length of Visible Light
Length of Day
Tomorrow will be .
, % of the Moon is Illuminated

Today's Extremes

State Highs State Lows

Community

WunderPhotos

Upload Photos

1,851,555 photos uploaded!

WunderBlogs® & News

Nearby

Air Quality

  Air Quality AQ Index Pollutant
Not available.

Snow Depth

Station Depth Elevation

Earthquake Activity

City Distance Mag. Time & Date
Minimum magnitude displayed is 2.5.

Coastal Water Temperatures

Place Temperature

Stations

Nearby Weather Stations

Station Location Temp. Windchill Dew Point Humidity Wind Precip. Elev Updated Type